sensor_id;sensor_type;location;lat;lon;timestamp;P1;durP1;ratioP1;P2;durP2;ratioP2
4521;SDS011;2273;48.464;11.926;2023-11-19T00:00:06;3.80;;;2.77;;
4521;SDS011;2273;48.464;11.926;2023-11-19T00:02:37;4.60;;;3.30;;
4521;SDS011;2273;48.464;11.926;2023-11-19T00:05:03;3.87;;;2.80;;
4521;SDS011;2273;48.464;11.926;2023-11-19T00:07:29;4.30;;;2.80;;
4521;SDS011;2273;48.464;11.926;2023-11-19T00:09:54;3.67;;;2.43;;
4521;SDS011;2273;48.464;11.926;2023-11-19T00:12:20;3.67;;;2.50;;
4521;SDS011;2273;48.464;11.926;2023-11-19T00:14:45;4.00;;;2.30;;
4521;SDS011;2273;48.464;11.926;2023-11-19T00:17:11;4.13;;;2.30;;
4521;SDS011;2273;48.464;11.926;2023-11-19T00:19:36;2.80;;;2.33;;
4521;SDS011;2273;48.464;11.926;2023-11-19T00:22:02;4.60;;;3.23;;
4521;SDS011;2273;48.464;11.926;2023-11-19T00:24:28;5.37;;;3.23;;
4521;SDS011;2273;48.464;11.926;2023-11-19T00:26:53;5.43;;;3.77;;
4521;SDS011;2273;48.464;11.926;2023-11-19T00:29:19;6.40;;;4.07;;
4521;SDS011;2273;48.464;11.926;2023-11-19T00:31:45;7.07;;;3.90;;
4521;SDS011;2273;48.464;11.926;2023-11-19T00:34:10;5.23;;;3.80;;
4521;SDS011;2273;48.464;11.926;2023-11-19T00:36:36;4.40;;;3.37;;
4521;SDS011;2273;48.464;11.926;2023-11-19T00:39:02;5.00;;;3.77;;
4521;SDS011;2273;48.464;11.926;2023-11-19T00:41:27;6.23;;;4.10;;
4521;SDS011;2273;48.464;11.926;2023-11-19T00:43:53;5.03;;;3.80;;
4521;SDS011;2273;48.464;11.926;2023-11-19T00:46:18;5.33;;;4.00;;
4521;SDS011;2273;48.464;11.926;2023-11-19T00:48:43;5.33;;;3.90;;
4521;SDS011;2273;48.464;11.926;2023-11-19T00:51:11;5.13;;;3.90;;
4521;SDS011;2273;48.464;11.926;2023-11-19T00:53:36;6.47;;;4.07;;
4521;SDS011;2273;48.464;11.926;2023-11-19T00:56:02;5.33;;;3.93;;
4521;SDS011;2273;48.464;11.926;2023-11-19T00:58:27;5.93;;;4.47;;
4521;SDS011;2273;48.464;11.926;2023-11-19T01:00:53;7.13;;;4.07;;
4521;SDS011;2273;48.464;11.926;2023-11-19T01:03:18;6.30;;;4.40;;
4521;SDS011;2273;48.464;11.926;2023-11-19T01:05:44;7.30;;;4.30;;
4521;SDS011;2273;48.464;11.926;2023-11-19T01:08:11;6.20;;;5.10;;
4521;SDS011;2273;48.464;11.926;2023-11-19T01:10:37;6.57;;;4.20;;
4521;SDS011;2273;48.464;11.926;2023-11-19T01:13:02;6.67;;;4.80;;
4521;SDS011;2273;48.464;11.926;2023-11-19T01:15:31;6.60;;;4.83;;
4521;SDS011;2273;48.464;11.926;2023-11-19T01:17:56;7.10;;;4.60;;
4521;SDS011;2273;48.464;11.926;2023-11-19T01:20:22;9.50;;;5.83;;
4521;SDS011;2273;48.464;11.926;2023-11-19T01:22:48;6.60;;;4.57;;
4521;SDS011;2273;48.464;11.926;2023-11-19T01:25:13;6.30;;;4.67;;
4521;SDS011;2273;48.464;11.926;2023-11-19T01:27:39;7.90;;;5.40;;
4521;SDS011;2273;48.464;11.926;2023-11-19T01:30:05;8.00;;;5.63;;
4521;SDS011;2273;48.464;11.926;2023-11-19T01:32:34;8.90;;;6.37;;
4521;SDS011;2273;48.464;11.926;2023-11-19T01:35:00;9.43;;;6.13;;
4521;SDS011;2273;48.464;11.926;2023-11-19T01:37:26;7.43;;;5.43;;
4521;SDS011;2273;48.464;11.926;2023-11-19T01:39:51;9.03;;;5.87;;
4521;SDS011;2273;48.464;11.926;2023-11-19T01:42:16;6.90;;;5.17;;
4521;SDS011;2273;48.464;11.926;2023-11-19T01:44:42;8.50;;;5.50;;
4521;SDS011;2273;48.464;11.926;2023-11-19T01:47:08;7.43;;;5.40;;
4521;SDS011;2273;48.464;11.926;2023-11-19T01:49:34;7.80;;;5.60;;
4521;SDS011;2273;48.464;11.926;2023-11-19T01:51:59;10.00;;;5.17;;
4521;SDS011;2273;48.464;11.926;2023-11-19T01:54:25;7.53;;;5.40;;
4521;SDS011;2273;48.464;11.926;2023-11-19T01:56:52;7.97;;;5.77;;
4521;SDS011;2273;48.464;11.926;2023-11-19T01:59:18;7.80;;;5.20;;
4521;SDS011;2273;48.464;11.926;2023-11-19T02:01:45;6.87;;;5.17;;
4521;SDS011;2273;48.464;11.926;2023-11-19T02:04:11;7.10;;;5.23;;
4521;SDS011;2273;48.464;11.926;2023-11-19T02:06:37;6.60;;;4.67;;
4521;SDS011;2273;48.464;11.926;2023-11-19T02:09:05;7.87;;;5.03;;
4521;SDS011;2273;48.464;11.926;2023-11-19T02:11:33;7.17;;;5.00;;
4521;SDS011;2273;48.464;11.926;2023-11-19T02:14:00;8.25;;;5.45;;
4521;SDS011;2273;48.464;11.926;2023-11-19T02:16:25;8.20;;;4.87;;
4521;SDS011;2273;48.464;11.926;2023-11-19T02:18:51;6.17;;;4.77;;
4521;SDS011;2273;48.464;11.926;2023-11-19T02:21:16;7.67;;;5.50;;
4521;SDS011;2273;48.464;11.926;2023-11-19T02:23:43;6.60;;;4.60;;
4521;SDS011;2273;48.464;11.926;2023-11-19T02:26:31;7.57;;;5.53;;
4521;SDS011;2273;48.464;11.926;2023-11-19T02:28:58;7.53;;;4.70;;
4521;SDS011;2273;48.464;11.926;2023-11-19T02:31:23;7.80;;;5.70;;
4521;SDS011;2273;48.464;11.926;2023-11-19T02:33:49;6.00;;;4.37;;
4521;SDS011;2273;48.464;11.926;2023-11-19T02:36:15;8.90;;;5.73;;
4521;SDS011;2273;48.464;11.926;2023-11-19T02:38:41;7.40;;;5.03;;
4521;SDS011;2273;48.464;11.926;2023-11-19T02:41:07;8.93;;;5.20;;
4521;SDS011;2273;48.464;11.926;2023-11-19T02:43:33;6.97;;;4.77;;
4521;SDS011;2273;48.464;11.926;2023-11-19T02:46:00;6.97;;;4.83;;
4521;SDS011;2273;48.464;11.926;2023-11-19T02:48:26;6.13;;;4.57;;
4521;SDS011;2273;48.464;11.926;2023-11-19T02:50:52;6.70;;;4.80;;
4521;SDS011;2273;48.464;11.926;2023-11-19T02:53:17;7.10;;;5.10;;
4521;SDS011;2273;48.464;11.926;2023-11-19T02:55:43;6.27;;;4.10;;
4521;SDS011;2273;48.464;11.926;2023-11-19T02:58:14;6.30;;;4.77;;
4521;SDS011;2273;48.464;11.926;2023-11-19T03:00:45;8.80;;;4.90;;
4521;SDS011;2273;48.464;11.926;2023-11-19T03:03:19;8.73;;;4.77;;
4521;SDS011;2273;48.464;11.926;2023-11-19T03:05:47;5.70;;;4.37;;
4521;SDS011;2273;48.464;11.926;2023-11-19T03:08:13;6.63;;;4.40;;
4521;SDS011;2273;48.464;11.926;2023-11-19T03:10:42;6.60;;;4.50;;
4521;SDS011;2273;48.464;11.926;2023-11-19T03:13:12;6.47;;;5.03;;
4521;SDS011;2273;48.464;11.926;2023-11-19T03:15:39;5.67;;;3.97;;
4521;SDS011;2273;48.464;11.926;2023-11-19T03:18:05;7.40;;;4.47;;
4521;SDS011;2273;48.464;11.926;2023-11-19T03:20:30;6.07;;;4.33;;
4521;SDS011;2273;48.464;11.926;2023-11-19T03:22:56;6.80;;;4.97;;
4521;SDS011;2273;48.464;11.926;2023-11-19T03:25:24;6.60;;;4.80;;
4521;SDS011;2273;48.464;11.926;2023-11-19T03:27:52;7.47;;;4.70;;
4521;SDS011;2273;48.464;11.926;2023-11-19T03:30:18;6.07;;;4.60;;
4521;SDS011;2273;48.464;11.926;2023-11-19T03:32:44;5.30;;;4.20;;
4521;SDS011;2273;48.464;11.926;2023-11-19T03:35:09;6.73;;;4.53;;
4521;SDS011;2273;48.464;11.926;2023-11-19T03:37:37;5.10;;;4.10;;
4521;SDS011;2273;48.464;11.926;2023-11-19T03:40:03;6.27;;;4.67;;
4521;SDS011;2273;48.464;11.926;2023-11-19T03:42:29;5.90;;;4.50;;
4521;SDS011;2273;48.464;11.926;2023-11-19T03:44:55;6.60;;;4.67;;
4521;SDS011;2273;48.464;11.926;2023-11-19T03:47:21;6.40;;;4.93;;
4521;SDS011;2273;48.464;11.926;2023-11-19T03:49:51;6.20;;;4.40;;
4521;SDS011;2273;48.464;11.926;2023-11-19T03:52:17;6.17;;;4.60;;
4521;SDS011;2273;48.464;11.926;2023-11-19T03:54:43;6.20;;;4.33;;
4521;SDS011;2273;48.464;11.926;2023-11-19T03:57:08;7.80;;;5.07;;
4521;SDS011;2273;48.464;11.926;2023-11-19T03:59:36;7.40;;;5.00;;
4521;SDS011;2273;48.464;11.926;2023-11-19T04:02:01;5.70;;;4.30;;
4521;SDS011;2273;48.464;11.926;2023-11-19T04:04:27;6.17;;;4.43;;
4521;SDS011;2273;48.464;11.926;2023-11-19T04:06:54;6.23;;;4.30;;
4521;SDS011;2273;48.464;11.926;2023-11-19T04:09:20;5.83;;;4.37;;
4521;SDS011;2273;48.464;11.926;2023-11-19T04:11:45;6.53;;;4.33;;
4521;SDS011;2273;48.464;11.926;2023-11-19T04:14:12;5.10;;;4.13;;
4521;SDS011;2273;48.464;11.926;2023-11-19T04:16:38;6.10;;;4.63;;
4521;SDS011;2273;48.464;11.926;2023-11-19T04:19:05;9.33;;;6.30;;
4521;SDS011;2273;48.464;11.926;2023-11-19T04:21:31;8.70;;;6.60;;
4521;SDS011;2273;48.464;11.926;2023-11-19T04:23:57;8.83;;;6.63;;
4521;SDS011;2273;48.464;11.926;2023-11-19T04:26:22;9.30;;;5.80;;
4521;SDS011;2273;48.464;11.926;2023-11-19T04:28:48;7.80;;;5.33;;
4521;SDS011;2273;48.464;11.926;2023-11-19T04:31:14;7.53;;;5.57;;
4521;SDS011;2273;48.464;11.926;2023-11-19T04:33:41;6.10;;;4.50;;
4521;SDS011;2273;48.464;11.926;2023-11-19T04:36:07;6.93;;;5.27;;
4521;SDS011;2273;48.464;11.926;2023-11-19T04:38:32;9.30;;;5.10;;
4521;SDS011;2273;48.464;11.926;2023-11-19T04:40:58;6.73;;;4.70;;
4521;SDS011;2273;48.464;11.926;2023-11-19T04:43:23;7.03;;;4.53;;
4521;SDS011;2273;48.464;11.926;2023-11-19T04:45:49;7.57;;;5.40;;
4521;SDS011;2273;48.464;11.926;2023-11-19T04:48:14;6.43;;;4.67;;
4521;SDS011;2273;48.464;11.926;2023-11-19T04:50:39;8.70;;;5.90;;
4521;SDS011;2273;48.464;11.926;2023-11-19T04:53:05;8.97;;;5.10;;
4521;SDS011;2273;48.464;11.926;2023-11-19T04:55:30;10.77;;;4.70;;
4521;SDS011;2273;48.464;11.926;2023-11-19T04:57:55;7.17;;;4.90;;
4521;SDS011;2273;48.464;11.926;2023-11-19T05:00:21;7.00;;;4.67;;
4521;SDS011;2273;48.464;11.926;2023-11-19T05:02:47;7.53;;;5.53;;
4521;SDS011;2273;48.464;11.926;2023-11-19T05:05:12;6.80;;;4.90;;
4521;SDS011;2273;48.464;11.926;2023-11-19T05:07:38;6.43;;;4.63;;
4521;SDS011;2273;48.464;11.926;2023-11-19T05:10:03;7.93;;;5.20;;
4521;SDS011;2273;48.464;11.926;2023-11-19T05:12:30;6.47;;;4.67;;
4521;SDS011;2273;48.464;11.926;2023-11-19T05:14:56;7.07;;;4.90;;
4521;SDS011;2273;48.464;11.926;2023-11-19T05:17:23;13.10;;;4.80;;
4521;SDS011;2273;48.464;11.926;2023-11-19T05:19:48;6.50;;;4.80;;
4521;SDS011;2273;48.464;11.926;2023-11-19T05:22:14;6.20;;;4.70;;
4521;SDS011;2273;48.464;11.926;2023-11-19T05:24:39;7.80;;;5.50;;
4521;SDS011;2273;48.464;11.926;2023-11-19T05:27:06;9.17;;;5.83;;
4521;SDS011;2273;48.464;11.926;2023-11-19T05:29:33;9.07;;;5.60;;
4521;SDS011;2273;48.464;11.926;2023-11-19T05:31:58;8.77;;;5.83;;
4521;SDS011;2273;48.464;11.926;2023-11-19T05:34:24;14.80;;;6.90;;
4521;SDS011;2273;48.464;11.926;2023-11-19T05:36:50;9.03;;;5.83;;
4521;SDS011;2273;48.464;11.926;2023-11-19T05:39:16;9.43;;;5.40;;
4521;SDS011;2273;48.464;11.926;2023-11-19T05:41:42;8.17;;;5.23;;
4521;SDS011;2273;48.464;11.926;2023-11-19T05:44:07;8.53;;;5.10;;
4521;SDS011;2273;48.464;11.926;2023-11-19T05:46:33;8.43;;;5.40;;
4521;SDS011;2273;48.464;11.926;2023-11-19T05:48:58;9.30;;;5.20;;
4521;SDS011;2273;48.464;11.926;2023-11-19T05:51:24;8.20;;;5.27;;
4521;SDS011;2273;48.464;11.926;2023-11-19T05:53:49;9.30;;;6.00;;
4521;SDS011;2273;48.464;11.926;2023-11-19T05:56:15;14.23;;;7.93;;
4521;SDS011;2273;48.464;11.926;2023-11-19T05:58:46;16.70;;;8.93;;
4521;SDS011;2273;48.464;11.926;2023-11-19T06:01:13;12.40;;;7.37;;
4521;SDS011;2273;48.464;11.926;2023-11-19T06:03:38;10.50;;;6.87;;
4521;SDS011;2273;48.464;11.926;2023-11-19T06:06:04;11.20;;;6.40;;
4521;SDS011;2273;48.464;11.926;2023-11-19T06:08:30;11.70;;;6.90;;
4521;SDS011;2273;48.464;11.926;2023-11-19T06:10:55;12.70;;;7.50;;
4521;SDS011;2273;48.464;11.926;2023-11-19T06:13:21;11.20;;;6.53;;
4521;SDS011;2273;48.464;11.926;2023-11-19T06:15:46;10.23;;;6.13;;
4521;SDS011;2273;48.464;11.926;2023-11-19T06:18:12;10.10;;;6.43;;
4521;SDS011;2273;48.464;11.926;2023-11-19T06:20:37;9.73;;;5.93;;
4521;SDS011;2273;48.464;11.926;2023-11-19T06:23:03;9.50;;;6.30;;
4521;SDS011;2273;48.464;11.926;2023-11-19T06:25:28;10.00;;;6.50;;
4521;SDS011;2273;48.464;11.926;2023-11-19T06:27:54;11.47;;;6.50;;
4521;SDS011;2273;48.464;11.926;2023-11-19T06:30:19;11.57;;;5.80;;
4521;SDS011;2273;48.464;11.926;2023-11-19T06:32:48;9.97;;;6.80;;
4521;SDS011;2273;48.464;11.926;2023-11-19T06:35:13;11.73;;;7.33;;
4521;SDS011;2273;48.464;11.926;2023-11-19T06:37:39;12.87;;;7.20;;
4521;SDS011;2273;48.464;11.926;2023-11-19T06:40:05;11.40;;;6.40;;
4521;SDS011;2273;48.464;11.926;2023-11-19T06:42:32;9.17;;;5.80;;
4521;SDS011;2273;48.464;11.926;2023-11-19T06:44:58;10.10;;;6.40;;
4521;SDS011;2273;48.464;11.926;2023-11-19T06:47:27;8.90;;;5.43;;
4521;SDS011;2273;48.464;11.926;2023-11-19T06:49:53;12.10;;;6.40;;
4521;SDS011;2273;48.464;11.926;2023-11-19T06:52:19;9.30;;;5.60;;
4521;SDS011;2273;48.464;11.926;2023-11-19T06:54:44;8.03;;;5.20;;
4521;SDS011;2273;48.464;11.926;2023-11-19T06:57:10;7.83;;;5.10;;
4521;SDS011;2273;48.464;11.926;2023-11-19T06:59:36;7.73;;;4.27;;
4521;SDS011;2273;48.464;11.926;2023-11-19T07:02:02;5.20;;;3.70;;
4521;SDS011;2273;48.464;11.926;2023-11-19T07:04:27;8.27;;;4.03;;
4521;SDS011;2273;48.464;11.926;2023-11-19T07:06:53;4.57;;;3.47;;
4521;SDS011;2273;48.464;11.926;2023-11-19T07:09:18;4.13;;;2.80;;
4521;SDS011;2273;48.464;11.926;2023-11-19T07:11:44;5.60;;;3.30;;
4521;SDS011;2273;48.464;11.926;2023-11-19T07:14:10;4.10;;;2.47;;
4521;SDS011;2273;48.464;11.926;2023-11-19T07:16:36;3.30;;;2.57;;
4521;SDS011;2273;48.464;11.926;2023-11-19T07:19:02;5.77;;;3.20;;
4521;SDS011;2273;48.464;11.926;2023-11-19T07:21:28;3.80;;;2.40;;
4521;SDS011;2273;48.464;11.926;2023-11-19T07:23:57;4.03;;;2.53;;
4521;SDS011;2273;48.464;11.926;2023-11-19T07:26:22;4.40;;;2.63;;
4521;SDS011;2273;48.464;11.926;2023-11-19T07:28:48;3.90;;;2.57;;
4521;SDS011;2273;48.464;11.926;2023-11-19T07:31:16;10.10;;;2.60;;
4521;SDS011;2273;48.464;11.926;2023-11-19T07:33:44;3.50;;;2.47;;
4521;SDS011;2273;48.464;11.926;2023-11-19T07:36:10;2.97;;;2.40;;
4521;SDS011;2273;48.464;11.926;2023-11-19T07:38:36;2.60;;;1.80;;
4521;SDS011;2273;48.464;11.926;2023-11-19T07:41:01;3.27;;;2.37;;
4521;SDS011;2273;48.464;11.926;2023-11-19T07:43:27;3.70;;;2.20;;
4521;SDS011;2273;48.464;11.926;2023-11-19T07:45:53;4.60;;;2.70;;
4521;SDS011;2273;48.464;11.926;2023-11-19T07:48:18;4.57;;;3.00;;
4521;SDS011;2273;48.464;11.926;2023-11-19T07:50:51;4.70;;;2.50;;
4521;SDS011;2273;48.464;11.926;2023-11-19T07:53:17;3.30;;;2.13;;
4521;SDS011;2273;48.464;11.926;2023-11-19T07:55:42;3.30;;;2.37;;
4521;SDS011;2273;48.464;11.926;2023-11-19T07:58:09;2.80;;;2.10;;
4521;SDS011;2273;48.464;11.926;2023-11-19T08:00:35;2.53;;;2.00;;
4521;SDS011;2273;48.464;11.926;2023-11-19T08:03:00;4.73;;;2.37;;
4521;SDS011;2273;48.464;11.926;2023-11-19T08:05:26;2.60;;;2.17;;
4521;SDS011;2273;48.464;11.926;2023-11-19T08:07:51;2.50;;;2.00;;
4521;SDS011;2273;48.464;11.926;2023-11-19T08:10:18;2.90;;;2.00;;
4521;SDS011;2273;48.464;11.926;2023-11-19T08:12:44;2.43;;;1.80;;
4521;SDS011;2273;48.464;11.926;2023-11-19T08:15:09;2.07;;;1.60;;
4521;SDS011;2273;48.464;11.926;2023-11-19T08:17:35;2.80;;;2.10;;
4521;SDS011;2273;48.464;11.926;2023-11-19T08:20:01;3.37;;;1.90;;
4521;SDS011;2273;48.464;11.926;2023-11-19T08:22:27;12.60;;;1.93;;
4521;SDS011;2273;48.464;11.926;2023-11-19T08:24:52;4.30;;;2.30;;
4521;SDS011;2273;48.464;11.926;2023-11-19T08:27:17;3.07;;;2.10;;
4521;SDS011;2273;48.464;11.926;2023-11-19T08:29:43;3.20;;;1.63;;
4521;SDS011;2273;48.464;11.926;2023-11-19T08:32:08;2.07;;;1.70;;
4521;SDS011;2273;48.464;11.926;2023-11-19T08:34:35;3.77;;;2.27;;
4521;SDS011;2273;48.464;11.926;2023-11-19T08:37:01;2.50;;;2.00;;
4521;SDS011;2273;48.464;11.926;2023-11-19T08:39:26;2.10;;;1.70;;
4521;SDS011;2273;48.464;11.926;2023-11-19T08:41:51;2.50;;;1.90;;
4521;SDS011;2273;48.464;11.926;2023-11-19T08:44:17;2.60;;;2.00;;
4521;SDS011;2273;48.464;11.926;2023-11-19T08:46:48;2.60;;;1.87;;
4521;SDS011;2273;48.464;11.926;2023-11-19T08:49:16;3.20;;;1.83;;
4521;SDS011;2273;48.464;11.926;2023-11-19T08:51:42;5.33;;;1.70;;
4521;SDS011;2273;48.464;11.926;2023-11-19T08:54:07;3.47;;;1.90;;
4521;SDS011;2273;48.464;11.926;2023-11-19T08:56:33;3.07;;;2.13;;
4521;SDS011;2273;48.464;11.926;2023-11-19T08:59:00;6.17;;;2.27;;
4521;SDS011;2273;48.464;11.926;2023-11-19T09:01:26;2.20;;;1.70;;
4521;SDS011;2273;48.464;11.926;2023-11-19T09:03:51;2.40;;;1.93;;
4521;SDS011;2273;48.464;11.926;2023-11-19T09:06:17;2.20;;;1.60;;
4521;SDS011;2273;48.464;11.926;2023-11-19T09:08:42;3.03;;;1.97;;
4521;SDS011;2273;48.464;11.926;2023-11-19T09:11:08;2.20;;;1.50;;
4521;SDS011;2273;48.464;11.926;2023-11-19T09:13:34;2.23;;;1.50;;
4521;SDS011;2273;48.464;11.926;2023-11-19T09:16:00;2.40;;;1.87;;
4521;SDS011;2273;48.464;11.926;2023-11-19T09:18:28;2.10;;;1.40;;
4521;SDS011;2273;48.464;11.926;2023-11-19T09:20:54;2.27;;;1.70;;
4521;SDS011;2273;48.464;11.926;2023-11-19T09:23:20;2.83;;;1.60;;
4521;SDS011;2273;48.464;11.926;2023-11-19T09:25:45;2.07;;;1.57;;
4521;SDS011;2273;48.464;11.926;2023-11-19T09:28:10;2.13;;;1.53;;
4521;SDS011;2273;48.464;11.926;2023-11-19T09:30:36;2.17;;;1.77;;
4521;SDS011;2273;48.464;11.926;2023-11-19T09:33:01;2.20;;;1.53;;
4521;SDS011;2273;48.464;11.926;2023-11-19T09:35:27;3.20;;;1.57;;
4521;SDS011;2273;48.464;11.926;2023-11-19T09:37:52;6.83;;;1.70;;
4521;SDS011;2273;48.464;11.926;2023-11-19T09:40:18;1.80;;;1.30;;
4521;SDS011;2273;48.464;11.926;2023-11-19T09:42:44;3.00;;;1.80;;
4521;SDS011;2273;48.464;11.926;2023-11-19T09:45:13;3.90;;;1.93;;
4521;SDS011;2273;48.464;11.926;2023-11-19T09:47:43;2.63;;;2.10;;
4521;SDS011;2273;48.464;11.926;2023-11-19T09:50:10;2.20;;;1.80;;
4521;SDS011;2273;48.464;11.926;2023-11-19T09:52:44;3.00;;;1.90;;
4521;SDS011;2273;48.464;11.926;2023-11-19T09:55:10;2.90;;;2.17;;
4521;SDS011;2273;48.464;11.926;2023-11-19T09:57:37;4.40;;;2.87;;
4521;SDS011;2273;48.464;11.926;2023-11-19T10:00:03;3.90;;;2.10;;
4521;SDS011;2273;48.464;11.926;2023-11-19T10:02:31;8.63;;;2.30;;
4521;SDS011;2273;48.464;11.926;2023-11-19T10:04:58;2.47;;;1.80;;
4521;SDS011;2273;48.464;11.926;2023-11-19T10:07:24;2.40;;;1.90;;
4521;SDS011;2273;48.464;11.926;2023-11-19T10:09:50;2.60;;;2.00;;
4521;SDS011;2273;48.464;11.926;2023-11-19T10:12:15;3.23;;;1.60;;
4521;SDS011;2273;48.464;11.926;2023-11-19T10:14:41;3.20;;;2.03;;
4521;SDS011;2273;48.464;11.926;2023-11-19T10:17:08;2.27;;;1.63;;
4521;SDS011;2273;48.464;11.926;2023-11-19T10:19:34;2.50;;;2.00;;
4521;SDS011;2273;48.464;11.926;2023-11-19T10:22:04;2.50;;;1.57;;
4521;SDS011;2273;48.464;11.926;2023-11-19T10:24:33;2.20;;;1.67;;
4521;SDS011;2273;48.464;11.926;2023-11-19T10:26:59;2.10;;;1.70;;
4521;SDS011;2273;48.464;11.926;2023-11-19T10:29:26;2.53;;;1.70;;
4521;SDS011;2273;48.464;11.926;2023-11-19T10:31:57;2.40;;;1.73;;
4521;SDS011;2273;48.464;11.926;2023-11-19T10:34:25;2.43;;;1.83;;
4521;SDS011;2273;48.464;11.926;2023-11-19T10:36:51;2.80;;;1.40;;
4521;SDS011;2273;48.464;11.926;2023-11-19T10:39:16;6.37;;;1.97;;
4521;SDS011;2273;48.464;11.926;2023-11-19T10:41:43;4.03;;;1.50;;
4521;SDS011;2273;48.464;11.926;2023-11-19T10:44:08;2.40;;;1.83;;
4521;SDS011;2273;48.464;11.926;2023-11-19T10:46:40;2.20;;;1.80;;
4521;SDS011;2273;48.464;11.926;2023-11-19T10:49:09;2.67;;;1.37;;
4521;SDS011;2273;48.464;11.926;2023-11-19T10:51:35;2.70;;;2.10;;
4521;SDS011;2273;48.464;11.926;2023-11-19T10:54:04;2.17;;;1.70;;
4521;SDS011;2273;48.464;11.926;2023-11-19T10:56:34;3.53;;;2.30;;
4521;SDS011;2273;48.464;11.926;2023-11-19T10:59:00;2.80;;;1.97;;
4521;SDS011;2273;48.464;11.926;2023-11-19T11:01:27;2.20;;;1.77;;
4521;SDS011;2273;48.464;11.926;2023-11-19T11:03:58;2.73;;;1.53;;
4521;SDS011;2273;48.464;11.926;2023-11-19T11:06:24;3.20;;;1.90;;
4521;SDS011;2273;48.464;11.926;2023-11-19T11:08:52;2.63;;;1.80;;
4521;SDS011;2273;48.464;11.926;2023-11-19T11:11:19;3.33;;;1.43;;
4521;SDS011;2273;48.464;11.926;2023-11-19T11:13:48;4.07;;;1.53;;
4521;SDS011;2273;48.464;11.926;2023-11-19T11:16:14;2.80;;;1.60;;
4521;SDS011;2273;48.464;11.926;2023-11-19T11:18:46;2.40;;;1.83;;
4521;SDS011;2273;48.464;11.926;2023-11-19T11:21:15;3.37;;;2.00;;
4521;SDS011;2273;48.464;11.926;2023-11-19T11:37:55;3.00;;;1.57;;
4521;SDS011;2273;48.464;11.926;2023-11-19T11:40:25;2.90;;;1.70;;
4521;SDS011;2273;48.464;11.926;2023-11-19T11:42:51;2.83;;;1.70;;
4521;SDS011;2273;48.464;11.926;2023-11-19T11:45:17;2.00;;;1.37;;
4521;SDS011;2273;48.464;11.926;2023-11-19T11:50:19;2.47;;;1.50;;
4521;SDS011;2273;48.464;11.926;2023-11-19T11:55:36;1.93;;;1.20;;
4521;SDS011;2273;48.464;11.926;2023-11-19T11:58:05;2.37;;;1.53;;
4521;SDS011;2273;48.464;11.926;2023-11-19T12:00:31;2.40;;;1.40;;
4521;SDS011;2273;48.464;11.926;2023-11-19T12:03:00;2.57;;;1.70;;
4521;SDS011;2273;48.464;11.926;2023-11-19T12:05:27;2.40;;;1.50;;
4521;SDS011;2273;48.464;11.926;2023-11-19T12:08:02;2.63;;;1.63;;
4521;SDS011;2273;48.464;11.926;2023-11-19T12:10:30;2.20;;;1.50;;
4521;SDS011;2273;48.464;11.926;2023-11-19T12:12:59;2.50;;;1.70;;
4521;SDS011;2273;48.464;11.926;2023-11-19T12:15:25;1.90;;;1.47;;
4521;SDS011;2273;48.464;11.926;2023-11-19T12:17:52;2.67;;;1.80;;
4521;SDS011;2273;48.464;11.926;2023-11-19T12:20:21;2.70;;;1.60;;
4521;SDS011;2273;48.464;11.926;2023-11-19T12:22:50;1.90;;;1.20;;
4521;SDS011;2273;48.464;11.926;2023-11-19T12:25:16;2.20;;;1.60;;
4521;SDS011;2273;48.464;11.926;2023-11-19T12:27:46;2.73;;;1.80;;
4521;SDS011;2273;48.464;11.926;2023-11-19T12:30:17;2.30;;;1.70;;
4521;SDS011;2273;48.464;11.926;2023-11-19T12:32:44;2.60;;;1.50;;
4521;SDS011;2273;48.464;11.926;2023-11-19T12:35:11;2.43;;;1.63;;
4521;SDS011;2273;48.464;11.926;2023-11-19T12:40:15;3.23;;;1.50;;
4521;SDS011;2273;48.464;11.926;2023-11-19T12:42:42;2.13;;;1.20;;
4521;SDS011;2273;48.464;11.926;2023-11-19T12:45:08;2.43;;;1.80;;
4521;SDS011;2273;48.464;11.926;2023-11-19T12:47:36;2.20;;;1.53;;
4521;SDS011;2273;48.464;11.926;2023-11-19T12:50:02;2.10;;;1.57;;
4521;SDS011;2273;48.464;11.926;2023-11-19T12:52:28;2.60;;;1.57;;
4521;SDS011;2273;48.464;11.926;2023-11-19T12:54:54;2.30;;;1.50;;
4521;SDS011;2273;48.464;11.926;2023-11-19T12:57:20;3.07;;;1.90;;
4521;SDS011;2273;48.464;11.926;2023-11-19T12:59:55;2.10;;;1.50;;
4521;SDS011;2273;48.464;11.926;2023-11-19T13:02:23;3.20;;;1.73;;
4521;SDS011;2273;48.464;11.926;2023-11-19T13:07:57;5.07;;;2.57;;
4521;SDS011;2273;48.464;11.926;2023-11-19T13:10:31;1.90;;;1.30;;
4521;SDS011;2273;48.464;11.926;2023-11-19T13:13:04;2.60;;;1.50;;
4521;SDS011;2273;48.464;11.926;2023-11-19T13:15:36;2.00;;;1.33;;
4521;SDS011;2273;48.464;11.926;2023-11-19T13:18:02;6.20;;;1.80;;
4521;SDS011;2273;48.464;11.926;2023-11-19T13:20:28;4.50;;;1.70;;
4521;SDS011;2273;48.464;11.926;2023-11-19T13:22:54;2.37;;;1.77;;
4521;SDS011;2273;48.464;11.926;2023-11-19T13:25:23;1.83;;;1.17;;
4521;SDS011;2273;48.464;11.926;2023-11-19T13:27:48;2.07;;;1.53;;
4521;SDS011;2273;48.464;11.926;2023-11-19T13:30:14;2.43;;;1.50;;
4521;SDS011;2273;48.464;11.926;2023-11-19T13:32:40;2.13;;;1.50;;
4521;SDS011;2273;48.464;11.926;2023-11-19T13:35:05;2.40;;;1.53;;
4521;SDS011;2273;48.464;11.926;2023-11-19T13:37:33;4.70;;;1.33;;
4521;SDS011;2273;48.464;11.926;2023-11-19T13:39:59;1.97;;;1.27;;
4521;SDS011;2273;48.464;11.926;2023-11-19T13:42:25;5.43;;;1.50;;
4521;SDS011;2273;48.464;11.926;2023-11-19T13:44:50;2.60;;;1.80;;
4521;SDS011;2273;48.464;11.926;2023-11-19T13:47:16;2.20;;;1.30;;
4521;SDS011;2273;48.464;11.926;2023-11-19T13:49:41;2.50;;;1.60;;
4521;SDS011;2273;48.464;11.926;2023-11-19T13:52:06;2.00;;;1.40;;
4521;SDS011;2273;48.464;11.926;2023-11-19T13:54:32;2.50;;;1.90;;
4521;SDS011;2273;48.464;11.926;2023-11-19T13:56:57;2.23;;;1.30;;
4521;SDS011;2273;48.464;11.926;2023-11-19T13:59:23;4.03;;;2.00;;
4521;SDS011;2273;48.464;11.926;2023-11-19T14:01:49;3.10;;;1.97;;
4521;SDS011;2273;48.464;11.926;2023-11-19T14:04:14;2.30;;;1.70;;
4521;SDS011;2273;48.464;11.926;2023-11-19T14:06:40;2.33;;;1.57;;
4521;SDS011;2273;48.464;11.926;2023-11-19T14:09:06;4.90;;;1.90;;
4521;SDS011;2273;48.464;11.926;2023-11-19T14:11:32;3.03;;;1.70;;
4521;SDS011;2273;48.464;11.926;2023-11-19T14:13:57;2.20;;;1.30;;
4521;SDS011;2273;48.464;11.926;2023-11-19T14:16:26;11.87;;;1.67;;
4521;SDS011;2273;48.464;11.926;2023-11-19T14:18:52;2.10;;;1.40;;
4521;SDS011;2273;48.464;11.926;2023-11-19T14:21:18;2.70;;;1.87;;
4521;SDS011;2273;48.464;11.926;2023-11-19T14:23:43;2.10;;;1.57;;
4521;SDS011;2273;48.464;11.926;2023-11-19T14:26:08;4.97;;;1.77;;
4521;SDS011;2273;48.464;11.926;2023-11-19T14:28:34;2.03;;;1.43;;
4521;SDS011;2273;48.464;11.926;2023-11-19T14:30:59;3.43;;;1.70;;
4521;SDS011;2273;48.464;11.926;2023-11-19T14:33:25;5.43;;;1.50;;
4521;SDS011;2273;48.464;11.926;2023-11-19T14:35:51;9.90;;;1.30;;
4521;SDS011;2273;48.464;11.926;2023-11-19T14:38:17;2.20;;;1.57;;
4521;SDS011;2273;48.464;11.926;2023-11-19T14:40:42;2.10;;;1.40;;
4521;SDS011;2273;48.464;11.926;2023-11-19T14:43:08;2.57;;;1.90;;
4521;SDS011;2273;48.464;11.926;2023-11-19T14:45:35;2.00;;;1.50;;
4521;SDS011;2273;48.464;11.926;2023-11-19T14:48:01;2.20;;;1.60;;
4521;SDS011;2273;48.464;11.926;2023-11-19T14:50:26;2.10;;;1.23;;
4521;SDS011;2273;48.464;11.926;2023-11-19T14:52:53;2.40;;;1.47;;
4521;SDS011;2273;48.464;11.926;2023-11-19T14:55:18;3.17;;;1.97;;
4521;SDS011;2273;48.464;11.926;2023-11-19T14:57:44;2.30;;;1.50;;
4521;SDS011;2273;48.464;11.926;2023-11-19T15:00:11;2.23;;;1.70;;
4521;SDS011;2273;48.464;11.926;2023-11-19T15:02:42;3.40;;;1.90;;
4521;SDS011;2273;48.464;11.926;2023-11-19T15:05:08;2.77;;;1.70;;
4521;SDS011;2273;48.464;11.926;2023-11-19T15:07:37;2.80;;;1.87;;
4521;SDS011;2273;48.464;11.926;2023-11-19T15:10:03;2.33;;;1.53;;
4521;SDS011;2273;48.464;11.926;2023-11-19T15:12:28;3.70;;;1.93;;
4521;SDS011;2273;48.464;11.926;2023-11-19T15:14:54;2.57;;;1.60;;
4521;SDS011;2273;48.464;11.926;2023-11-19T15:17:20;4.03;;;1.90;;
4521;SDS011;2273;48.464;11.926;2023-11-19T15:19:46;2.10;;;1.30;;